createdAt,value
2019-05-10T00:02:03.304Z,14.50
2019-05-10T00:04:57.471Z,14.47
2019-05-10T00:07:51.333Z,13.60
2019-05-10T00:10:26.864Z,13.37
2019-05-10T00:13:07.367Z,14.17
2019-05-10T00:15:43.553Z,12.97
2019-05-10T00:18:19.692Z,14.17
2019-05-10T00:20:55.878Z,12.77
2019-05-10T00:23:32.133Z,12.47
2019-05-10T00:26:08.367Z,12.03
2019-05-10T00:28:44.604Z,11.53
2019-05-10T00:31:20.816Z,10.17
2019-05-10T00:33:57.145Z,11.40
2019-05-10T00:36:33.318Z,11.30
2019-05-10T00:39:09.495Z,11.57
2019-05-10T00:41:45.711Z,11.57
2019-05-10T00:44:21.903Z,11.77
2019-05-10T00:46:58.117Z,12.57
2019-05-10T00:49:34.390Z,12.40
2019-05-10T00:52:10.765Z,12.57
2019-05-10T00:54:46.984Z,12.67
2019-05-10T00:57:23.230Z,12.70
2019-05-10T00:59:59.392Z,13.07
2019-05-10T01:02:35.648Z,13.40
2019-05-10T01:05:11.961Z,13.33
2019-05-10T01:07:48.142Z,13.57
2019-05-10T01:10:24.390Z,13.80
2019-05-10T01:13:00.648Z,13.23
2019-05-10T01:15:36.968Z,13.93
2019-05-10T01:18:13.039Z,12.77
2019-05-10T01:20:49.474Z,15.17
2019-05-10T01:23:25.679Z,13.07
2019-05-10T01:26:01.857Z,13.23
2019-05-10T01:28:38.052Z,13.47
2019-05-10T01:31:14.260Z,13.37
2019-05-10T01:33:50.446Z,12.80
2019-05-10T01:36:26.625Z,13.93
2019-05-10T01:39:03.978Z,12.60
2019-05-10T01:41:40.217Z,12.80
2019-05-10T01:44:16.435Z,14.57
2019-05-10T01:46:52.699Z,14.70
2019-05-10T01:49:28.921Z,13.77
2019-05-10T01:52:05.112Z,14.50
2019-05-10T01:54:41.244Z,14.63
2019-05-10T01:57:17.429Z,13.00
2019-05-10T01:59:53.610Z,14.23
2019-05-10T02:02:29.846Z,13.23
2019-05-10T02:05:06.620Z,13.23
2019-05-10T02:07:42.843Z,12.47
2019-05-10T02:10:19.597Z,12.90
2019-05-10T02:12:55.798Z,14.60
2019-05-10T02:15:32.059Z,14.33
2019-05-10T02:18:08.191Z,13.03
2019-05-10T02:20:44.353Z,14.87
2019-05-10T02:23:20.493Z,12.90
2019-05-10T02:26:08.927Z,14.43
2019-05-10T02:28:34.513Z,14.07
2019-05-10T02:31:10.763Z,15.67
2019-05-10T02:33:46.965Z,17.57
2019-05-10T02:36:23.139Z,17.00
2019-05-10T02:38:59.279Z,17.40
2019-05-10T02:41:35.730Z,18.10
2019-05-10T02:44:11.957Z,17.87
2019-05-10T02:46:48.131Z,19.47
2019-05-10T02:49:24.381Z,18.67
2019-05-10T02:52:00.534Z,20.33
2019-05-10T02:54:36.761Z,20.37
2019-05-10T02:57:13.301Z,18.37
2019-05-10T02:59:49.872Z,18.53
2019-05-10T03:02:26.914Z,18.47
2019-05-10T03:05:04.359Z,17.73
2019-05-10T03:07:40.494Z,18.90
2019-05-10T03:10:16.761Z,17.47
2019-05-10T03:12:55.946Z,18.30
2019-05-10T03:15:36.712Z,17.33
2019-05-10T03:18:12.915Z,17.93
2019-05-10T03:20:49.890Z,18.07
2019-05-10T03:23:26.956Z,17.00
2019-05-10T03:26:03.134Z,15.90
2019-05-10T03:28:39.289Z,15.13
2019-05-10T03:31:15.854Z,15.10
2019-05-10T03:33:56.629Z,18.13
2019-05-10T03:36:30.030Z,14.17
2019-05-10T03:39:07.264Z,13.10
2019-05-10T03:41:43.546Z,16.37
2019-05-10T03:44:19.777Z,13.43
2019-05-10T03:46:55.998Z,13.33
2019-05-10T03:49:32.233Z,12.00
2019-05-10T03:52:08.365Z,11.40
2019-05-10T03:54:44.613Z,11.43
2019-05-10T03:57:20.803Z,11.07
2019-05-10T03:59:56.970Z,11.43
2019-05-10T04:02:33.140Z,12.87
2019-05-10T04:05:09.265Z,14.27
2019-05-10T04:07:45.449Z,11.90
2019-05-10T04:10:21.676Z,11.83
2019-05-10T04:12:57.888Z,11.53
2019-05-10T04:15:35.817Z,10.73
2019-05-10T04:18:12.036Z,11.57
2019-05-10T04:20:48.293Z,12.13
2019-05-10T04:23:24.505Z,15.07
2019-05-10T04:26:00.686Z,12.13
2019-05-10T04:28:36.897Z,12.23
2019-05-10T04:31:13.137Z,11.90
2019-05-10T04:33:49.342Z,11.33
2019-05-10T04:36:25.620Z,11.57
2019-05-10T04:39:01.785Z,11.10
2019-05-10T04:41:37.880Z,10.83
2019-05-10T04:44:14.202Z,9.80
2019-05-10T04:46:50.318Z,8.77
2019-05-10T04:49:26.549Z,11.57
2019-05-10T04:52:02.678Z,9.03
2019-05-10T04:54:38.909Z,9.57
2019-05-10T04:57:15.069Z,8.67
2019-05-10T04:59:51.314Z,8.60
2019-05-10T05:02:27.566Z,8.50
2019-05-10T05:05:04.595Z,8.70
2019-05-10T05:07:40.796Z,9.03
2019-05-10T05:10:17.050Z,8.70
2019-05-10T05:12:53.383Z,10.60
2019-05-10T05:15:29.584Z,9.00
2019-05-10T05:18:05.741Z,8.53
2019-05-10T05:20:41.996Z,10.70
2019-05-10T05:23:18.243Z,12.07
2019-05-10T05:25:54.417Z,7.03
2019-05-10T05:28:30.632Z,8.40
2019-05-10T05:31:06.895Z,7.43
2019-05-10T05:33:43.136Z,7.90
2019-05-10T05:36:19.332Z,7.53
2019-05-10T05:38:55.647Z,8.53
2019-05-10T05:41:32.092Z,11.17
2019-05-10T05:44:08.318Z,8.07
2019-05-10T05:46:44.653Z,7.97
2019-05-10T05:49:20.871Z,9.00
2019-05-10T05:51:57.049Z,7.30
2019-05-10T05:54:33.193Z,7.93
2019-05-10T05:57:09.431Z,7.00
2019-05-10T05:59:48.972Z,8.00
2019-05-10T06:02:23.457Z,9.47
2019-05-10T06:04:59.678Z,6.90
2019-05-10T06:07:38.096Z,7.53
2019-05-10T06:10:17.083Z,8.63
2019-05-10T06:12:53.030Z,8.23
2019-05-10T06:15:31.472Z,7.53
2019-05-10T06:18:09.874Z,7.00
2019-05-10T06:20:47.005Z,8.07
2019-05-10T06:23:23.233Z,6.80
2019-05-10T06:25:59.433Z,7.13
2019-05-10T06:28:57.393Z,7.07
2019-05-10T06:31:13.469Z,6.90
2019-05-10T06:33:49.596Z,7.63
2019-05-10T06:36:25.693Z,7.67
2019-05-10T06:39:01.908Z,7.97
2019-05-10T06:41:38.351Z,7.80
2019-05-10T06:44:14.551Z,7.53
2019-05-10T06:46:50.637Z,7.70
2019-05-10T06:49:26.843Z,7.10
2019-05-10T06:52:03.163Z,7.27
2019-05-10T06:54:39.284Z,7.30
2019-05-10T06:57:17.471Z,7.37
2019-05-10T06:59:56.465Z,6.53
2019-05-10T07:02:32.468Z,7.80
2019-05-10T07:05:09.172Z,6.87
2019-05-10T07:07:45.654Z,6.50
2019-05-10T07:10:25.170Z,6.70
2019-05-10T07:13:03.756Z,7.40
2019-05-10T07:15:42.345Z,6.70
2019-05-10T07:18:16.826Z,6.30
2019-05-10T07:20:53.775Z,6.87
2019-05-10T07:23:30.350Z,6.53
2019-05-10T07:26:09.677Z,7.83
2019-05-10T07:28:44.511Z,7.50
2019-05-10T07:31:23.505Z,8.07
2019-05-10T07:33:58.581Z,7.33
2019-05-10T07:36:34.715Z,7.20
2019-05-10T07:39:10.921Z,7.67
2019-05-10T07:41:47.104Z,7.70
2019-05-10T07:44:23.286Z,7.47
2019-05-10T07:46:59.526Z,6.83
2019-05-10T07:49:35.729Z,8.57
2019-05-10T07:52:11.969Z,6.63
2019-05-10T07:54:48.186Z,7.77
2019-05-10T07:57:26.832Z,6.97
2019-05-10T08:00:03.657Z,5.60
2019-05-10T08:02:44.364Z,5.90
2019-05-10T08:05:18.484Z,5.90
2019-05-10T08:07:54.887Z,5.07
2019-05-10T08:10:31.094Z,4.63
2019-05-10T08:13:08.433Z,4.63
2019-05-10T08:15:44.800Z,4.97
2019-05-10T08:18:25.192Z,4.53
2019-05-10T08:21:02.457Z,5.37
2019-05-10T08:23:36.672Z,5.47
2019-05-10T08:26:19.724Z,4.70
2019-05-10T08:28:52.620Z,5.13
2019-05-10T08:31:33.894Z,4.83
2019-05-10T08:34:06.763Z,5.10
2019-05-10T08:36:47.519Z,5.37
2019-05-10T08:39:22.377Z,5.03
2019-05-10T08:42:08.834Z,5.27
2019-05-10T08:44:36.644Z,5.13
2019-05-10T08:47:22.205Z,6.70
2019-05-10T08:50:05.931Z,4.30
2019-05-10T08:52:31.699Z,4.67
2019-05-10T08:55:07.925Z,4.73
2019-05-10T08:57:49.157Z,5.30
2019-05-10T09:00:41.616Z,5.10
2019-05-10T09:03:09.543Z,5.63
2019-05-10T09:05:42.662Z,5.57
2019-05-10T09:08:20.211Z,5.07
2019-05-10T09:10:55.796Z,5.10
2019-05-10T09:13:37.108Z,5.40
2019-05-10T09:16:10.002Z,6.53
2019-05-10T09:18:50.261Z,5.80
2019-05-10T09:21:24.111Z,6.33
2019-05-10T09:24:04.932Z,7.00
2019-05-10T09:26:38.100Z,6.53
2019-05-10T09:29:14.268Z,6.70
2019-05-10T09:31:53.195Z,6.90
2019-05-10T09:34:28.354Z,7.53
2019-05-10T09:37:08.171Z,7.10
2019-05-10T09:39:42.581Z,6.33
2019-05-10T09:42:25.453Z,6.70
2019-05-10T09:44:56.745Z,6.37
2019-05-10T09:47:33.110Z,6.60
2019-05-10T09:50:12.470Z,6.03
2019-05-10T09:52:48.132Z,6.30
2019-05-10T09:55:24.385Z,7.10
2019-05-10T09:58:00.603Z,7.30
2019-05-10T10:00:37.995Z,7.53
2019-05-10T10:03:14.562Z,6.83
2019-05-10T10:05:55.110Z,7.30
2019-05-10T10:08:28.676Z,8.77
2019-05-10T10:11:14.233Z,8.37
2019-05-10T10:13:44.103Z,7.63
2019-05-10T10:16:20.621Z,7.80
2019-05-10T10:18:56.854Z,8.00
2019-05-10T10:21:35.468Z,7.13
2019-05-10T10:24:15.698Z,7.00
2019-05-10T10:26:53.839Z,7.10
2019-05-10T10:29:28.881Z,7.37
2019-05-10T10:32:04.477Z,7.93
2019-05-10T10:34:42.960Z,6.33
2019-05-10T10:37:22.131Z,6.50
2019-05-10T10:40:00.731Z,7.40
2019-05-10T10:42:34.183Z,6.70
2019-05-10T10:45:10.917Z,6.60
2019-05-10T10:47:47.271Z,7.90
2019-05-10T10:50:23.599Z,6.83
2019-05-10T10:52:59.843Z,6.13
2019-05-10T10:55:37.856Z,6.87
2019-05-10T10:58:13.844Z,5.90
2019-05-10T11:00:50.092Z,6.37
2019-05-10T11:03:30.399Z,5.93
2019-05-10T11:06:04.190Z,5.37
2019-05-10T11:08:41.272Z,5.50
2019-05-10T11:11:17.611Z,5.50
2019-05-10T11:14:00.654Z,6.80
2019-05-10T11:16:31.691Z,5.30
2019-05-10T11:19:11.153Z,5.57
2019-05-10T11:21:45.782Z,5.00
2019-05-10T11:24:22.859Z,5.57
2019-05-10T11:27:01.064Z,5.80
2019-05-10T11:29:37.038Z,6.50
2019-05-10T11:32:16.779Z,7.73
2019-05-10T11:34:51.096Z,7.97
2019-05-10T11:37:32.645Z,5.07
2019-05-10T11:40:06.950Z,10.20
2019-05-10T11:42:47.263Z,4.80
2019-05-10T11:45:26.154Z,5.20
2019-05-10T11:48:02.052Z,4.60
2019-05-10T11:50:37.021Z,5.23
2019-05-10T11:53:17.176Z,5.63
2019-05-10T11:55:51.706Z,6.10
2019-05-10T11:58:30.474Z,6.03
2019-05-10T12:01:16.386Z,5.93
2019-05-10T12:03:43.756Z,5.83
2019-05-10T12:06:21.605Z,6.20
2019-05-10T12:09:02.093Z,6.50
2019-05-10T12:11:51.238Z,5.03
2019-05-10T12:14:21.967Z,5.30
2019-05-10T12:16:58.428Z,5.00
2019-05-10T12:19:36.853Z,4.13
2019-05-10T12:22:15.815Z,5.03
2019-05-10T12:25:11.069Z,4.50
2019-05-10T12:27:41.756Z,4.13
2019-05-10T12:30:07.220Z,4.10
2019-05-10T12:32:55.675Z,4.60
2019-05-10T12:35:26.378Z,4.37
2019-05-10T12:38:03.830Z,4.37
2019-05-10T12:40:41.737Z,4.03
2019-05-10T12:43:20.888Z,4.10
2019-05-10T12:45:56.032Z,4.80
2019-05-10T12:48:35.903Z,4.20
2019-05-10T12:51:16.161Z,4.57
2019-05-10T12:53:52.283Z,5.13
2019-05-10T12:56:34.728Z,4.47
2019-05-10T12:59:06.751Z,4.93
2019-05-10T13:01:42.968Z,3.37
2019-05-10T13:04:19.101Z,1.63
2019-05-10T13:06:59.973Z,1.90
2019-05-10T13:09:40.608Z,1.60
2019-05-10T13:12:14.137Z,1.40
2019-05-10T13:14:52.881Z,2.00
2019-05-10T13:17:28.098Z,1.30
2019-05-10T13:20:06.944Z,1.30
2019-05-10T13:22:43.281Z,1.47
2019-05-10T13:25:19.571Z,1.10
2019-05-10T13:27:55.744Z,1.80
2019-05-10T13:30:32.105Z,1.60
2019-05-10T13:33:08.439Z,3.10
2019-05-10T13:35:50.827Z,2.80
2019-05-10T13:38:24.449Z,3.60
2019-05-10T13:41:00.892Z,3.50
2019-05-10T13:43:40.345Z,3.90
2019-05-10T13:46:19.306Z,4.13
2019-05-10T13:48:55.633Z,3.80
2019-05-10T13:51:31.962Z,3.70
2019-05-10T13:54:08.122Z,3.50
2019-05-10T13:56:52.050Z,3.03
2019-05-10T13:59:23.663Z,2.97
2019-05-10T14:01:59.922Z,2.10
2019-05-10T14:04:38.600Z,1.60
2019-05-10T14:07:14.197Z,1.60
2019-05-10T14:09:50.526Z,5.60
2019-05-10T14:12:26.753Z,5.03
2019-05-10T14:15:08.359Z,5.27
2019-05-10T14:17:40.805Z,6.30
2019-05-10T14:20:25.072Z,4.90
2019-05-10T14:22:58.354Z,5.27
2019-05-10T14:25:36.476Z,5.93
2019-05-10T14:28:15.564Z,5.67
2019-05-10T14:30:56.985Z,5.03
2019-05-10T14:33:26.871Z,5.00
2019-05-10T14:36:03.553Z,5.47
2019-05-10T14:38:41.335Z,10.53
2019-05-10T14:41:17.554Z,7.90
2019-05-10T14:43:53.719Z,6.23
2019-05-10T14:46:29.853Z,7.33
2019-05-10T14:49:09.811Z,7.60
2019-05-10T14:51:57.669Z,7.10
2019-05-10T14:54:23.645Z,8.27
2019-05-10T14:57:02.720Z,8.00
2019-05-10T14:59:39.565Z,15.07
2019-05-10T15:02:17.068Z,18.73
2019-05-10T15:04:54.000Z,10.10
2019-05-10T15:07:33.365Z,7.73
2019-05-10T15:10:09.780Z,7.27
2019-05-10T15:12:45.922Z,7.20
2019-05-10T15:15:22.159Z,7.47
2019-05-10T15:18:02.174Z,6.53
2019-05-10T15:20:36.381Z,6.83
2019-05-10T15:23:12.518Z,5.40
2019-05-10T15:25:57.329Z,5.93
2019-05-10T15:28:26.730Z,7.00
2019-05-10T15:31:02.956Z,7.87
2019-05-10T15:33:39.251Z,11.00
2019-05-10T15:36:15.470Z,11.63
2019-05-10T15:38:54.432Z,12.90
2019-05-10T15:41:30.644Z,12.20
2019-05-10T15:44:06.829Z,11.97
2019-05-10T15:46:42.846Z,12.13
2019-05-10T15:49:23.456Z,13.27
2019-05-10T15:52:16.311Z,13.43
2019-05-10T15:54:37.942Z,13.60
2019-05-10T15:57:14.451Z,13.73
2019-05-10T15:59:56.631Z,14.97
2019-05-10T16:02:30.285Z,14.33
2019-05-10T16:05:23.300Z,13.87
2019-05-10T16:07:46.512Z,12.73
2019-05-10T16:10:28.511Z,13.60
2019-05-10T16:13:01.601Z,16.03
2019-05-10T16:15:37.769Z,12.83
2019-05-10T16:18:14.142Z,14.10
2019-05-10T16:20:50.359Z,15.20
2019-05-10T16:23:26.608Z,15.30
2019-05-10T16:26:02.817Z,11.93
2019-05-10T16:28:39.034Z,12.30
2019-05-10T16:31:15.305Z,12.03
2019-05-10T16:33:53.407Z,11.10
2019-05-10T16:36:30.214Z,10.63
2019-05-10T16:39:07.257Z,10.43
2019-05-10T16:41:43.547Z,10.97
2019-05-10T16:44:21.044Z,9.90
2019-05-10T16:46:57.455Z,9.97
2019-05-10T16:49:33.900Z,10.40
2019-05-10T16:52:10.140Z,10.57
2019-05-10T16:54:46.392Z,10.33
2019-05-10T16:57:22.549Z,9.50
2019-05-10T17:00:01.994Z,10.40
2019-05-10T17:02:41.471Z,10.90
2019-05-10T17:05:15.516Z,10.73
2019-05-10T17:07:53.697Z,10.10
2019-05-10T17:10:33.086Z,11.40
2019-05-10T17:13:08.126Z,10.43
2019-05-10T17:15:44.306Z,12.67
2019-05-10T17:18:23.846Z,13.80
2019-05-10T17:20:58.421Z,12.83
2019-05-10T17:23:34.573Z,12.07
2019-05-10T17:26:10.814Z,11.93
2019-05-10T17:28:46.998Z,11.83
2019-05-10T17:31:23.217Z,12.30
2019-05-10T17:33:59.463Z,11.60
2019-05-10T17:36:35.568Z,13.23
2019-05-10T17:39:11.769Z,12.50
2019-05-10T17:41:47.953Z,12.97
2019-05-10T17:44:24.828Z,13.30
2019-05-10T17:47:01.313Z,13.00
2019-05-10T17:49:37.520Z,12.33
2019-05-10T17:52:13.777Z,12.77
2019-05-10T17:54:49.920Z,12.77
2019-05-10T17:57:26.104Z,13.23
2019-05-10T18:00:02.250Z,11.77
2019-05-10T18:02:38.480Z,11.83
2019-05-10T18:05:14.843Z,13.00
2019-05-10T18:07:50.978Z,13.10
2019-05-10T18:10:27.090Z,13.43
2019-05-10T18:13:05.161Z,12.33
2019-05-10T18:15:41.195Z,13.20
2019-05-10T18:18:17.395Z,13.30
2019-05-10T18:20:53.599Z,13.10
2019-05-10T18:23:29.848Z,13.47
2019-05-10T18:26:06.068Z,13.00
2019-05-10T18:28:42.332Z,14.10
2019-05-10T18:31:18.561Z,15.50
2019-05-10T18:33:55.966Z,14.57
2019-05-10T18:36:50.523Z,14.90
2019-05-10T18:39:15.370Z,15.73
2019-05-10T18:41:48.943Z,16.37
2019-05-10T18:44:25.209Z,16.33
2019-05-10T18:47:01.527Z,16.47
2019-05-10T18:49:37.834Z,16.13
2019-05-10T18:52:14.426Z,16.13
2019-05-10T18:54:50.647Z,16.77
2019-05-10T18:57:26.892Z,17.10
2019-05-10T19:00:03.478Z,17.77
2019-05-10T19:02:41.149Z,18.20
2019-05-10T19:05:17.486Z,18.90
2019-05-10T19:08:03.157Z,19.43
2019-05-10T19:10:31.560Z,18.83
2019-05-10T19:13:08.250Z,20.27
2019-05-10T19:15:46.282Z,18.77
2019-05-10T19:18:23.638Z,17.90
2019-05-10T19:21:00.507Z,19.30
2019-05-10T19:23:36.685Z,20.33
2019-05-10T19:26:12.895Z,21.10
2019-05-10T19:28:49.144Z,21.33
2019-05-10T19:31:25.403Z,25.50
2019-05-10T19:34:01.618Z,21.83
2019-05-10T19:36:37.867Z,23.13
2019-05-10T19:39:14.133Z,21.23
2019-05-10T19:41:50.393Z,21.33
2019-05-10T19:44:26.720Z,21.57
2019-05-10T19:47:02.941Z,20.83
2019-05-10T19:49:39.124Z,22.53
2019-05-10T19:52:15.476Z,22.23
2019-05-10T19:54:51.611Z,23.13
2019-05-10T19:57:27.783Z,23.13
2019-05-10T20:00:07.873Z,25.27
2019-05-10T20:02:44.085Z,23.40
2019-05-10T20:05:20.465Z,21.23
2019-05-10T20:07:56.736Z,19.97
2019-05-10T20:10:32.950Z,20.67
2019-05-10T20:13:10.187Z,19.20
2019-05-10T20:15:46.333Z,19.13
2019-05-10T20:18:22.504Z,20.40
2019-05-10T20:20:58.717Z,21.70
2019-05-10T20:23:34.905Z,21.70
2019-05-10T20:26:11.121Z,22.57
2019-05-10T20:28:47.423Z,22.67
2019-05-10T20:31:23.629Z,23.27
2019-05-10T20:33:59.965Z,23.20
2019-05-10T20:36:36.178Z,23.30
2019-05-10T20:39:12.439Z,24.07
2019-05-10T20:41:48.651Z,24.23
2019-05-10T20:44:24.909Z,25.63
2019-05-10T20:47:01.053Z,24.53
2019-05-10T20:49:37.276Z,24.20
2019-05-10T20:52:13.673Z,24.27
2019-05-10T20:54:49.983Z,26.07
2019-05-10T20:57:26.158Z,25.50
2019-05-10T21:00:02.720Z,22.53
2019-05-10T21:02:39.020Z,23.77
2019-05-10T21:05:15.278Z,23.00
2019-05-10T21:07:51.417Z,21.67
2019-05-10T21:10:27.668Z,23.67
2019-05-10T21:13:04.074Z,22.53
2019-05-10T21:15:40.394Z,22.80
2019-05-10T21:18:16.608Z,23.37
2019-05-10T21:20:52.715Z,23.03
2019-05-10T21:23:28.861Z,22.70
2019-05-10T21:26:05.105Z,23.00
2019-05-10T21:28:41.197Z,22.67
2019-05-10T21:31:17.385Z,22.77
2019-05-10T21:34:08.264Z,22.43
2019-05-10T21:36:31.419Z,23.17
2019-05-10T21:39:07.873Z,23.00
2019-05-10T21:41:44.116Z,22.30
2019-05-10T21:44:20.296Z,21.23
2019-05-10T21:46:56.432Z,20.57
2019-05-10T21:49:32.524Z,20.93
2019-05-10T21:52:08.656Z,21.70
2019-05-10T21:54:44.916Z,19.37
2019-05-10T21:57:21.126Z,20.23
2019-05-10T21:59:57.298Z,20.67
2019-05-10T22:02:33.437Z,20.70
2019-05-10T22:05:09.769Z,20.17
2019-05-10T22:07:46.084Z,19.87
2019-05-10T22:10:22.291Z,21.90
2019-05-10T22:12:58.500Z,22.93
2019-05-10T22:15:34.671Z,23.23
2019-05-10T22:18:10.815Z,24.03
2019-05-10T22:20:47.008Z,28.20
2019-05-10T22:23:23.079Z,34.20
2019-05-10T22:25:59.325Z,31.47
2019-05-10T22:28:35.462Z,49.27
2019-05-10T22:31:11.790Z,34.37
2019-05-10T22:33:47.902Z,32.30
2019-05-10T22:36:24.043Z,41.63
2019-05-10T22:39:07.220Z,30.67
2019-05-10T22:41:38.190Z,29.13
2019-05-10T22:44:14.431Z,32.93
2019-05-10T22:46:50.713Z,27.07
2019-05-10T22:49:26.933Z,27.57
2019-05-10T22:52:03.191Z,24.23
2019-05-10T22:54:39.428Z,24.73
2019-05-10T22:57:15.638Z,24.33
2019-05-10T22:59:51.732Z,25.33
2019-05-10T23:02:27.921Z,23.13
2019-05-10T23:05:05.376Z,23.27
2019-05-10T23:07:41.584Z,20.30
2019-05-10T23:10:17.831Z,16.80
2019-05-10T23:12:54.039Z,16.03
2019-05-10T23:15:30.275Z,18.70
2019-05-10T23:18:06.421Z,20.43
2019-05-10T23:20:42.631Z,19.90
2019-05-10T23:23:21.046Z,22.23
2019-05-10T23:25:56.884Z,21.27
2019-05-10T23:28:33.018Z,24.17
2019-05-10T23:31:09.184Z,23.07
2019-05-10T23:33:45.339Z,21.90
2019-05-10T23:36:21.507Z,24.13
2019-05-10T23:38:57.692Z,22.90
2019-05-10T23:41:33.939Z,22.93
2019-05-10T23:44:10.075Z,22.77
2019-05-10T23:46:46.287Z,21.47
2019-05-10T23:49:22.432Z,22.83
2019-05-10T23:51:58.675Z,22.23
2019-05-10T23:54:34.856Z,21.40
2019-05-10T23:57:11.041Z,22.63
2019-05-10T23:59:47.364Z,22.57
